Time;durP1;ratioP1;P1;durP2;ratioP2;P2;SDS_P1;SDS_P2;PMS_P1;PMS_P2;Temp;Humidity;BMP_temperature;BMP_pressure;BME280_temperature;BME280_humidity;BME280_pressure;Samples;Min_cycle;Max_cycle;Signal;HPM_P1;HPM_P2
2024/04/14 00:01:41;;;;;;;9.70;5.88;;;;;;;14.89;100.00;101409.38;10814952;26;20008;-71
2024/04/14 00:06:38;;;;;;;12.65;6.28;;;;;;;14.77;100.00;101412.81;10857042;26;20579;-71
2024/04/14 00:11:35;;;;;;;8.32;5.55;;;;;;;14.64;100.00;101403.59;10857446;26;20001;-71
2024/04/14 00:16:33;;;;;;;7.93;5.55;;;;;;;14.59;100.00;101405.75;10841018;26;20469;-70
2024/04/14 00:21:30;;;;;;;10.57;5.97;;;;;;;14.46;100.00;101419.34;10818648;26;20083;-71
2024/04/14 00:26:27;;;;;;;8.88;5.75;;;;;;;14.39;100.00;101413.53;10831695;26;20016;-71
2024/04/14 00:31:24;;;;;;;9.45;5.45;;;;;;;14.44;100.00;101405.09;10794150;26;20017;-71
2024/04/14 00:36:21;;;;;;;14.40;6.80;;;;;;;14.34;100.00;101399.13;10802839;26;20093;-71
2024/04/14 00:41:18;;;;;;;8.43;5.57;;;;;;;14.34;100.00;101402.69;10784937;26;20088;-71
2024/04/14 00:46:17;;;;;;;10.73;5.32;;;;;;;14.42;100.00;101392.81;10787186;26;20761;-71
2024/04/14 00:51:14;;;;;;;11.93;5.35;;;;;;;14.25;100.00;101396.38;10815126;26;20011;-71
2024/04/14 00:56:12;;;;;;;11.93;6.25;;;;;;;14.33;100.00;101401.09;10896810;26;20079;-70
2024/04/14 01:01:09;;;;;;;15.13;6.30;;;;;;;14.19;100.00;101419.72;10865181;26;20070;-71
2024/04/14 01:06:07;;;;;;;8.60;5.88;;;;;;;14.23;100.00;101416.00;10841288;26;21012;-70
2024/04/14 01:11:04;;;;;;;8.98;5.18;;;;;;;14.05;100.00;101426.19;10865395;26;20471;-70
2024/04/14 01:16:01;;;;;;;10.38;5.53;;;;;;;14.07;100.00;101418.44;10842189;26;20075;-69
2024/04/14 01:20:58;;;;;;;8.95;6.18;;;;;;;13.71;100.00;101437.16;10869715;26;20005;-71
2024/04/14 01:25:56;;;;;;;11.02;7.97;;;;;;;13.21;100.00;101469.34;10857908;26;20005;-71
2024/04/14 01:30:53;;;;;;;8.68;7.25;;;;;;;12.77;100.00;101481.22;10863796;26;20019;-71
2024/04/14 01:35:50;;;;;;;10.18;6.72;;;;;;;12.60;100.00;101492.88;10843122;26;20010;-71
2024/04/14 01:40:48;;;;;;;16.35;7.05;;;;;;;12.66;100.00;101493.59;10866066;26;20622;-70
2024/04/14 01:45:45;;;;;;;11.40;6.78;;;;;;;12.78;100.00;101491.88;10858753;26;20020;-72
2024/04/14 01:50:42;;;;;;;14.05;6.82;;;;;;;12.92;100.00;101474.53;10859818;26;20033;-71
2024/04/14 01:55:43;;;;;;;18.67;7.80;;;;;;;12.96;100.00;101489.25;10848763;26;20476;-71
2024/04/14 02:00:40;;;;;;;13.10;6.95;;;;;;;12.96;100.00;101486.50;10863599;26;20529;-69
2024/04/14 02:05:37;;;;;;;12.48;6.05;;;;;;;12.92;100.00;101501.97;10852578;26;20452;-69
2024/04/14 02:10:43;;;;;;;14.80;7.13;;;;;;;12.79;100.00;101501.75;10845043;26;20451;-69
2024/04/14 02:15:41;;;;;;;11.98;6.63;;;;;;;12.72;100.00;101517.84;10860318;26;20012;-72
2024/04/14 02:20:38;;;;;;;13.35;6.13;;;;;;;12.49;100.00;101513.50;10862090;26;20021;-72
2024/04/14 02:25:35;;;;;;;11.07;5.38;;;;;;;12.58;100.00;101504.19;10865124;26;20366;-72
2024/04/14 02:30:32;;;;;;;11.23;5.40;;;;;;;12.40;100.00;101516.97;10851963;26;20005;-69
2024/04/14 02:35:29;;;;;;;14.35;6.57;;;;;;;12.24;100.00;101526.66;10830091;26;20016;-70
2024/04/14 02:40:26;;;;;;;12.85;5.78;;;;;;;12.17;100.00;101534.50;10848935;26;20135;-73
2024/04/14 02:45:24;;;;;;;6.82;4.70;;;;;;;11.88;100.00;101546.66;10871558;26;20465;-69
2024/04/14 02:50:21;;;;;;;10.63;5.18;;;;;;;11.80;100.00;101541.84;10870804;26;20020;-72
2024/04/14 02:55:18;;;;;;;17.58;5.40;;;;;;;11.71;100.00;101540.94;10845365;26;20001;-71
2024/04/14 03:00:15;;;;;;;8.43;5.10;;;;;;;11.63;100.00;101541.63;10843409;26;20323;-71
2024/04/14 03:05:12;;;;;;;9.43;5.43;;;;;;;11.45;100.00;101540.63;10848904;26;20005;-71
2024/04/14 03:10:10;;;;;;;8.77;4.95;;;;;;;11.35;100.00;101533.44;10856739;26;20028;-72
2024/04/14 03:15:07;;;;;;;11.48;4.60;;;;;;;11.23;100.00;101555.00;10837215;26;20041;-69
2024/04/14 03:20:05;;;;;;;15.13;5.25;;;;;;;11.14;100.00;101555.72;10842435;26;20849;-70
2024/04/14 03:25:02;;;;;;;9.85;4.80;;;;;;;11.07;100.00;101558.03;10862319;26;20008;-71
2024/04/14 03:29:59;;;;;;;11.45;4.80;;;;;;;11.06;100.00;101556.38;10851955;26;20097;-70
2024/04/14 03:34:57;;;;;;;12.07;5.15;;;;;;;10.83;100.00;101568.28;10844945;26;20069;-72
2024/04/14 03:39:54;;;;;;;10.45;5.13;;;;;;;10.70;100.00;101581.63;10848797;26;20012;-71
2024/04/14 03:44:51;;;;;;;9.70;4.70;;;;;;;10.54;100.00;101577.50;10847514;26;20457;-70
2024/04/14 03:49:48;;;;;;;11.93;5.60;;;;;;;10.58;100.00;101583.97;10861274;26;20009;-70
2024/04/14 03:54:46;;;;;;;12.93;5.32;;;;;;;10.50;100.00;101598.31;10861999;26;20013;-70
2024/04/14 03:59:46;;;;;;;10.90;5.40;;;;;;;10.34;100.00;101605.13;10855608;26;19997;-70
2024/04/14 04:04:43;;;;;;;11.00;5.18;;;;;;;10.25;100.00;101605.72;10786146;26;20005;-70
2024/04/14 04:09:40;;;;;;;8.48;5.47;;;;;;;10.14;100.00;101617.09;10793543;26;20005;-70
2024/04/14 04:14:38;;;;;;;10.80;5.32;;;;;;;10.05;100.00;101619.69;10780861;26;20013;-70
2024/04/14 04:19:35;;;;;;;7.28;5.10;;;;;;;10.06;100.00;101615.84;10788025;26;20013;-70
2024/04/14 04:24:32;;;;;;;11.85;5.13;;;;;;;10.09;100.00;101637.09;10779193;26;20002;-71
2024/04/14 04:29:29;;;;;;;9.52;5.55;;;;;;;9.85;100.00;101637.91;10799363;26;20018;-70
2024/04/14 04:34:27;;;;;;;13.00;5.97;;;;;;;9.85;100.00;101642.56;10765946;26;20150;-71
2024/04/14 04:39:24;;;;;;;10.68;5.18;;;;;;;9.82;100.00;101654.91;10796539;26;20012;-71
2024/04/14 04:44:21;;;;;;;14.30;5.50;;;;;;;9.74;100.00;101646.53;10846069;26;20101;-71
2024/04/14 04:49:18;;;;;;;14.25;4.80;;;;;;;9.58;100.00;101654.84;10870874;26;20019;-71
2024/04/14 04:54:16;;;;;;;18.30;5.60;;;;;;;9.58;100.00;101664.97;10838603;26;20013;-70
2024/04/14 04:59:13;;;;;;;10.68;5.25;;;;;;;9.45;100.00;101672.72;10850621;26;20449;-71
2024/04/14 05:04:11;;;;;;;10.52;5.13;;;;;;;9.51;100.00;101680.88;10848968;26;20194;-71
2024/04/14 05:09:09;;;;;;;13.73;5.00;;;;;;;9.48;100.00;101683.06;10852813;26;20020;-71
2024/04/14 05:14:06;;;;;;;11.57;5.40;;;;;;;9.54;100.00;101685.75;10822266;26;20037;-70
2024/04/14 05:19:03;;;;;;;12.65;5.00;;;;;;;9.57;100.00;101693.38;10844107;26;20458;-70
2024/04/14 05:24:00;;;;;;;12.10;5.78;;;;;;;9.52;100.00;101693.44;10813858;26;20072;-70
2024/04/14 05:28:58;;;;;;;13.32;4.47;;;;;;;9.59;100.00;101694.72;10824632;26;20005;-70
2024/04/14 05:33:56;;;;;;;12.05;5.25;;;;;;;9.61;100.00;101694.44;10797574;26;20017;-71
2024/04/14 05:38:53;;;;;;;12.68;5.10;;;;;;;9.76;100.00;101699.75;10832333;26;20452;-71
2024/04/14 05:43:50;;;;;;;12.23;5.53;;;;;;;9.71;100.00;101702.53;10778061;26;20006;-74
2024/04/14 05:48:48;;;;;;;16.67;5.38;;;;;;;9.53;100.00;101723.16;10779434;26;20104;-75
2024/04/14 05:54:05;;;;;;;17.35;6.55;;;;;;;9.77;100.00;101717.78;10843191;26;20020;-71
2024/04/14 05:59:02;;;;;;;13.20;5.18;;;;;;;9.67;100.00;101723.31;10863470;26;20416;-72
2024/04/14 06:03:59;;;;;;;11.35;5.00;;;;;;;9.78;100.00;101741.25;10797335;26;20608;-70
2024/04/14 06:08:56;;;;;;;12.07;5.10;;;;;;;9.57;100.00;101739.81;10834912;26;20005;-71
2024/04/14 06:13:53;;;;;;;14.23;5.93;;;;;;;9.67;100.00;101745.16;10836360;26;20057;-70
2024/04/14 06:18:50;;;;;;;16.20;5.35;;;;;;;9.62;100.00;101739.75;10793895;26;20437;-70
2024/04/14 06:23:47;;;;;;;14.68;5.70;;;;;;;9.63;100.00;101765.94;10780015;26;20028;-70
2024/04/14 06:28:44;;;;;;;10.48;5.03;;;;;;;9.55;100.00;101764.66;10780860;26;20013;-70
2024/04/14 06:33:42;;;;;;;9.90;4.72;;;;;;;9.59;100.00;101749.34;10830861;26;19997;-71
2024/04/14 06:38:44;;;;;;;13.27;5.78;;;;;;;9.74;100.00;101772.97;10807463;26;20020;-71
2024/04/14 06:43:41;;;;;;;13.50;5.28;;;;;;;9.78;100.00;101760.38;10776712;26;20018;-70
2024/04/14 06:48:38;;;;;;;12.90;5.50;;;;;;;9.80;100.00;101777.28;10836907;26;20017;-71
2024/04/14 06:53:35;;;;;;;12.50;5.30;;;;;;;9.71;100.00;101773.53;10802679;26;20018;-70
2024/04/14 06:58:36;;;;;;;9.98;5.25;;;;;;;9.77;100.00;101761.47;10792325;26;20079;-70
2024/04/14 07:03:33;;;;;;;13.30;5.45;;;;;;;9.63;100.00;101774.13;10826538;26;20009;-71
2024/04/14 07:08:30;;;;;;;13.48;4.93;;;;;;;9.96;100.00;101774.41;10806605;26;20110;-71
2024/04/14 07:13:27;;;;;;;17.75;5.78;;;;;;;9.93;100.00;101791.38;10780568;26;20110;-71
2024/04/14 07:18:24;;;;;;;13.43;4.72;;;;;;;10.13;100.00;101795.84;10830832;26;20065;-71
2024/04/14 07:23:21;;;;;;;10.48;5.15;;;;;;;10.20;100.00;101783.44;10865768;26;20016;-73
2024/04/14 07:28:19;;;;;;;13.38;5.15;;;;;;;10.16;100.00;101778.84;10842959;26;20034;-73
2024/04/14 07:33:16;;;;;;;10.70;4.30;;;;;;;10.15;100.00;101793.63;10855812;26;20462;-72
2024/04/14 07:38:13;;;;;;;9.65;5.07;;;;;;;9.96;100.00;101796.28;10830204;26;20015;-69
2024/04/14 07:43:10;;;;;;;11.68;5.93;;;;;;;10.19;100.00;101800.13;10865383;26;20044;-69
2024/04/14 07:48:07;;;;;;;24.13;6.03;;;;;;;10.30;100.00;101807.16;10852365;26;20019;-69
2024/04/14 07:53:05;;;;;;;16.30;5.63;;;;;;;10.34;100.00;101810.13;10865024;26;20024;-70
2024/04/14 07:58:02;;;;;;;12.30;5.30;;;;;;;10.43;100.00;101802.94;10857989;26;21117;-71
2024/04/14 08:02:59;;;;;;;10.50;4.90;;;;;;;10.36;100.00;101821.59;10847655;26;20009;-69
2024/04/14 08:07:57;;;;;;;10.20;4.70;;;;;;;10.30;100.00;101818.94;10848514;26;20016;-70
2024/04/14 08:12:54;;;;;;;15.57;5.18;;;;;;;10.65;100.00;101808.72;10852633;26;20024;-70
2024/04/14 08:17:51;;;;;;;12.15;5.00;;;;;;;10.78;100.00;101820.84;10832468;26;20342;-70
2024/04/14 08:22:48;;;;;;;13.52;5.82;;;;;;;10.82;100.00;101818.34;10838259;26;20128;-72
2024/04/14 08:27:45;;;;;;;8.27;5.00;;;;;;;11.04;100.00;101818.59;10861954;26;19997;-72
2024/04/14 08:32:43;;;;;;;9.90;4.95;;;;;;;10.90;100.00;101836.84;10854597;26;20407;-72
2024/04/14 08:37:40;;;;;;;6.75;5.03;;;;;;;10.81;100.00;101844.88;10847604;26;20017;-72
2024/04/14 08:42:37;;;;;;;10.80;5.35;;;;;;;10.79;100.00;101829.88;10833992;26;20049;-75
2024/04/14 08:47:36;;;;;;;15.93;5.53;;;;;;;11.04;100.00;101845.97;10847295;26;20001;-76
2024/04/14 08:52:35;;;;;;;7.63;4.70;;;;;;;10.74;100.00;101856.19;10829544;26;20005;-74
2024/04/14 08:57:33;;;;;;;11.38;4.80;;;;;;;10.85;100.00;101867.00;10836016;26;20035;-76
2024/04/14 09:02:31;;;;;;;10.20;4.80;;;;;;;10.95;100.00;101844.97;10856901;26;20001;-76
2024/04/14 09:07:29;;;;;;;13.52;4.95;;;;;;;11.01;100.00;101857.50;10853953;26;20005;-76
2024/04/14 09:12:28;;;;;;;13.35;5.07;;;;;;;11.07;100.00;101850.88;10836465;26;20033;-76
2024/04/14 09:17:25;;;;;;;9.05;4.47;;;;;;;11.32;100.00;101855.16;10835644;26;20005;-76
2024/04/14 09:22:22;;;;;;;16.48;5.57;;;;;;;11.89;100.00;101852.44;10829364;26;20015;-76
2024/04/14 09:27:21;;;;;;;8.82;5.18;;;;;;;11.79;100.00;101844.38;10839944;26;20033;-76
2024/04/14 09:32:19;;;;;;;12.20;5.13;;;;;;;12.13;100.00;101849.56;10848564;26;20033;-76
2024/04/14 09:37:18;;;;;;;8.60;4.78;;;;;;;12.24;100.00;101852.94;10845929;26;20008;-77
2024/04/14 09:42:16;;;;;;;12.02;5.28;;;;;;;12.27;100.00;101846.84;10837296;26;20017;-77
2024/04/14 09:47:14;;;;;;;12.35;5.03;;;;;;;12.42;100.00;101834.81;10831280;26;20043;-78
2024/04/14 09:52:16;;;;;;;14.60;5.00;;;;;;;11.99;100.00;101857.75;10836887;26;20077;-76
2024/04/14 09:57:13;;;;;;;13.70;5.30;;;;;;;12.37;100.00;101867.78;10834954;26;20005;-74
2024/04/14 10:02:15;;;;;;;7.10;4.10;;;;;;;11.97;100.00;101875.59;10852209;26;20632;-75
2024/04/14 10:07:16;;;;;;;8.65;4.00;;;;;;;11.77;100.00;101876.72;10815177;26;20349;-76
2024/04/14 10:12:13;;;;;;;10.82;4.28;;;;;;;11.33;100.00;101889.66;10835097;26;20074;-75
2024/04/14 10:17:12;;;;;;;7.05;3.58;;;;;;;11.38;100.00;101878.63;10846651;26;20579;-75
2024/04/14 10:22:09;;;;;;;11.38;4.68;;;;;;;11.98;100.00;101883.53;10842339;26;20001;-75
2024/04/14 10:27:07;;;;;;;7.30;4.18;;;;;;;13.38;100.00;101879.84;10848399;26;20019;-76
2024/04/14 10:32:04;;;;;;;8.30;3.95;;;;;;;14.06;100.00;101895.28;10846420;26;20086;-76
2024/04/14 10:37:01;;;;;;;8.57;3.80;;;;;;;13.97;100.00;101869.66;10844658;26;20014;-76
2024/04/14 10:41:59;;;;;;;7.78;4.00;;;;;;;14.09;100.00;101889.16;10844627;26;20360;-76
2024/04/14 10:46:57;;;;;;;11.57;3.83;;;;;;;13.60;100.00;101892.78;10825718;26;20024;-76
2024/04/14 10:51:54;;;;;;;5.80;3.75;;;;;;;13.91;98.97;101898.41;10826244;26;20012;-77
2024/04/14 10:56:54;;;;;;;7.00;3.80;;;;;;;13.15;100.00;101909.13;10856584;26;20016;-76
2024/04/14 11:01:52;;;;;;;5.80;4.35;;;;;;;14.20;100.00;101888.88;10848837;26;20445;-79
2024/04/14 11:06:49;;;;;;;9.43;4.45;;;;;;;13.88;100.00;101882.53;10853422;26;20383;-76
2024/04/14 11:11:47;;;;;;;9.70;4.28;;;;;;;14.10;98.85;101885.25;10856190;26;20013;-75
2024/04/14 11:16:44;;;;;;;8.82;4.40;;;;;;;14.24;98.91;101867.88;10852154;26;20088;-76
2024/04/14 11:21:42;;;;;;;8.18;4.18;;;;;;;13.12;100.00;101877.59;10862305;26;20346;-74
2024/04/14 11:26:41;;;;;;;8.57;3.90;;;;;;;12.75;100.00;101868.47;10845899;26;20017;-76
2024/04/14 11:31:38;;;;;;;7.55;4.10;;;;;;;13.37;100.00;101865.28;10852477;26;20001;-74
2024/04/14 11:36:36;;;;;;;11.98;3.78;;;;;;;13.86;100.00;101868.28;10847841;26;20341;-76
2024/04/14 11:41:33;;;;;;;7.75;4.07;;;;;;;14.31;100.00;101857.25;10862976;26;20000;-75
2024/04/14 11:46:30;;;;;;;8.43;5.18;;;;;;;13.54;100.00;101878.38;10849694;26;20010;-75
2024/04/14 11:51:27;;;;;;;7.93;4.32;;;;;;;12.82;100.00;101874.34;10872272;26;20005;-74
2024/04/14 11:56:24;;;;;;;9.15;4.68;;;;;;;13.14;100.00;101869.88;10853170;26;20194;-74
2024/04/14 12:01:21;;;;;;;10.55;4.18;;;;;;;14.35;99.12;101862.94;10854030;26;20041;-75
2024/04/14 12:06:19;;;;;;;7.18;4.43;;;;;;;14.40;86.35;101869.09;10858117;26;20009;-75
2024/04/14 12:11:16;;;;;;;10.60;4.85;;;;;;;14.94;91.16;101880.03;10850348;26;20037;-74
2024/04/14 12:16:15;;;;;;;5.60;3.88;;;;;;;15.07;89.42;101861.78;10844120;26;20009;-74
2024/04/14 12:21:14;;;;;;;8.15;4.07;;;;;;;15.17;76.29;101872.50;10859322;26;20012;-76
2024/04/14 12:26:13;;;;;;;8.23;3.72;;;;;;;14.80;76.78;101884.84;10853228;26;20018;-74
2024/04/14 12:31:10;;;;;;;10.02;3.70;;;;;;;15.07;79.87;101872.81;10802315;26;21370;-75
2024/04/14 12:36:08;;;;;;;6.55;3.83;;;;;;;15.80;76.88;101861.22;10840709;26;20009;-75
2024/04/14 12:41:07;;;;;;;6.65;3.80;;;;;;;16.85;71.43;101828.63;10796085;26;19997;-75
2024/04/14 12:46:04;;;;;;;7.38;3.60;;;;;;;15.73;78.81;101845.16;10830387;26;20034;-75
2024/04/14 12:51:01;;;;;;;15.80;4.55;;;;;;;16.54;74.40;101833.28;10805592;26;20451;-75
2024/04/14 12:55:58;;;;;;;8.82;4.40;;;;;;;18.49;77.75;101844.94;10865800;26;20005;-75
2024/04/14 13:00:56;;;;;;;10.27;4.50;;;;;;;16.71;92.05;101850.91;10860497;26;19997;-75
2024/04/14 13:05:53;;;;;;;12.63;5.13;;;;;;;16.12;100.00;101824.03;10849531;26;20024;-75
2024/04/14 13:10:53;;;;;;;10.73;3.80;;;;;;;16.05;100.00;101835.56;10865082;26;20005;-75
2024/04/14 13:15:51;;;;;;;8.40;4.65;;;;;;;16.38;95.98;101818.41;10848473;26;20461;-75
2024/04/14 13:20:48;;;;;;;6.28;4.00;;;;;;;16.51;89.37;101814.63;10863089;26;19997;-76
2024/04/14 13:25:45;;;;;;;7.32;3.80;;;;;;;14.85;96.77;101824.97;10849618;26;20020;-75
2024/04/14 13:30:42;;;;;;;8.80;3.75;;;;;;;16.59;80.45;101816.56;10858030;26;20011;-75
2024/04/14 13:35:41;;;;;;;8.18;3.70;;;;;;;16.77;74.53;101802.66;10850668;26;20333;-75
2024/04/14 13:40:42;;;;;;;6.90;4.05;;;;;;;17.19;71.33;101811.81;10855429;26;20337;-74
2024/04/14 13:45:39;;;;;;;6.57;4.15;;;;;;;17.10;73.37;101790.91;10859412;26;20016;-75
2024/04/14 13:50:36;;;;;;;8.05;3.90;;;;;;;16.87;71.73;101805.03;10870165;26;20395;-75
2024/04/14 13:55:33;;;;;;;8.30;3.95;;;;;;;17.14;71.63;101791.88;10851364;26;20037;-75
2024/04/14 14:00:33;;;;;;;11.88;4.13;;;;;;;15.90;72.42;101783.69;10845254;26;20005;-75
2024/04/14 14:05:30;;;;;;;7.05;3.75;;;;;;;15.32;74.86;101789.38;10865076;26;20459;-75
2024/04/14 14:10:27;;;;;;;8.05;3.45;;;;;;;14.88;84.93;101760.19;10860768;26;20080;-76
2024/04/14 14:15:25;;;;;;;6.75;3.60;;;;;;;15.10;91.97;101789.53;10855878;26;20033;-75
2024/04/14 14:20:22;;;;;;;7.28;3.70;;;;;;;15.84;91.62;101763.72;10840618;26;20104;-75
2024/04/14 14:25:19;;;;;;;5.65;4.00;;;;;;;16.13;90.32;101760.25;10848550;26;20072;-75
2024/04/14 14:30:16;;;;;;;5.75;3.60;;;;;;;15.80;93.32;101761.94;10857746;26;20057;-75
2024/04/14 14:40:29;;;;;;;7.35;4.13;;;;;;;14.43;100.00;101782.34;10854687;26;20400;-75
2024/04/14 14:45:27;;;;;;;9.05;4.15;;;;;;;14.00;100.00;101769.25;10848579;26;20040;-75
2024/04/14 14:50:24;;;;;;;12.30;4.95;;;;;;;13.87;100.00;101759.94;10866379;26;20017;-75
2024/04/14 14:55:21;;;;;;;11.00;4.63;;;;;;;14.25;100.00;101753.97;10845206;26;20357;-75
2024/04/14 15:00:18;;;;;;;11.80;5.10;;;;;;;14.09;100.00;101757.16;10856804;26;20157;-76
2024/04/14 15:05:16;;;;;;;9.80;4.28;;;;;;;13.92;100.00;101768.03;10785398;26;20012;-75
2024/04/14 15:10:13;;;;;;;9.43;4.43;;;;;;;15.57;100.00;101745.56;10861658;26;20016;-75
2024/04/14 15:15:10;;;;;;;11.40;4.80;;;;;;;15.56;100.00;101757.75;10862456;26;20015;-75
2024/04/14 15:20:08;;;;;;;9.43;4.32;;;;;;;15.02;100.00;101754.53;10853232;26;20041;-76
2024/04/14 15:25:05;;;;;;;14.75;4.95;;;;;;;14.69;100.00;101754.94;10846241;26;20012;-75
2024/04/14 15:30:02;;;;;;;8.73;4.22;;;;;;;14.70;100.00;101737.31;10836709;26;20015;-75
2024/04/14 15:35:00;;;;;;;9.82;4.05;;;;;;;15.55;100.00;101756.16;10859940;26;20077;-75
2024/04/14 15:39:58;;;;;;;7.70;3.47;;;;;;;16.07;88.48;101739.47;10868194;26;20005;-76
2024/04/14 15:44:55;;;;;;;9.15;3.92;;;;;;;15.06;83.35;101750.81;10859501;26;20070;-75
2024/04/14 15:49:53;;;;;;;8.43;3.38;;;;;;;14.20;89.56;101751.34;10871686;26;20337;-75
2024/04/14 15:54:50;;;;;;;8.68;3.53;;;;;;;14.58;93.74;101742.63;10858901;26;20025;-75
2024/04/14 15:59:50;;;;;;;5.40;2.97;;;;;;;14.23;91.02;101739.75;10852171;26;20016;-75
2024/04/14 16:04:47;;;;;;;8.77;3.78;;;;;;;14.23;89.23;101737.78;10863678;26;20005;-75
2024/04/14 16:09:45;;;;;;;7.13;3.30;;;;;;;14.32;91.86;101726.84;10854078;26;20001;-75
2024/04/14 16:14:42;;;;;;;6.03;3.30;;;;;;;14.84;94.86;101732.47;10854946;26;20001;-75
2024/04/14 16:19:39;;;;;;;8.55;3.22;;;;;;;14.77;91.13;101726.63;10867063;26;20024;-75
2024/04/14 16:24:36;;;;;;;7.85;3.35;;;;;;;15.02;87.80;101716.78;10847142;26;20009;-75
2024/04/14 16:29:34;;;;;;;11.07;4.13;;;;;;;14.84;89.04;101715.94;10865077;26;20004;-75
2024/04/14 16:34:32;;;;;;;6.05;3.35;;;;;;;14.68;90.55;101706.53;10866217;26;20020;-75
2024/04/14 16:39:29;;;;;;;8.63;3.20;;;;;;;15.13;86.29;101707.06;10868648;26;20422;-75
2024/04/14 16:44:26;;;;;;;7.82;3.63;;;;;;;14.90;89.81;101725.69;10851807;26;20004;-75
2024/04/14 16:49:23;;;;;;;11.88;3.67;;;;;;;14.75;97.18;101711.56;10873427;26;20001;-75
2024/04/14 16:54:20;;;;;;;9.55;4.22;;;;;;;15.18;97.73;101713.53;10854490;26;20005;-75
2024/04/14 16:59:17;;;;;;;9.02;4.30;;;;;;;15.10;100.00;101709.66;10857304;26;20017;-74
2024/04/14 17:04:15;;;;;;;7.60;3.58;;;;;;;14.66;100.00;101714.31;10859171;26;20016;-75
2024/04/14 17:09:13;;;;;;;10.48;3.55;;;;;;;13.74;100.00;101711.34;10858452;26;20044;-75
2024/04/14 17:14:10;;;;;;;9.95;4.53;;;;;;;13.70;100.00;101711.19;10858754;26;20019;-76
2024/04/14 17:19:07;;;;;;;9.18;4.50;;;;;;;13.02;100.00;101702.13;10855665;26;20086;-75
2024/04/14 17:24:04;;;;;;;7.88;4.43;;;;;;;12.64;100.00;101710.63;10838021;26;20113;-75
2024/04/14 17:29:02;;;;;;;15.15;5.50;;;;;;;12.70;100.00;101706.66;10857335;26;20077;-75
2024/04/14 17:33:59;;;;;;;10.77;4.00;;;;;;;12.54;100.00;101710.88;10871127;26;20017;-75
2024/04/14 17:38:57;;;;;;;10.93;4.18;;;;;;;11.84;100.00;101715.50;10867789;26;20033;-75
2024/04/14 17:43:55;;;;;;;18.42;4.90;;;;;;;11.60;100.00;101701.94;10853438;26;20105;-75
2024/04/14 17:48:52;;;;;;;9.20;4.60;;;;;;;11.47;100.00;101709.00;10837911;26;20024;-72
2024/04/14 17:53:50;;;;;;;10.73;3.90;;;;;;;11.47;100.00;101714.50;10802640;26;20001;-74
2024/04/14 17:58:47;;;;;;;10.40;4.30;;;;;;;11.18;100.00;101708.38;10768309;26;20029;-74
2024/04/14 18:03:44;;;;;;;10.13;4.28;;;;;;;11.01;100.00;101707.00;10779041;26;20038;-74
2024/04/14 18:08:42;;;;;;;16.85;6.15;;;;;;;10.83;100.00;101711.34;10835143;26;20492;-73
2024/04/14 18:13:39;;;;;;;13.00;5.20;;;;;;;10.68;100.00;101720.59;10854950;26;20074;-73
2024/04/14 18:18:37;;;;;;;8.23;4.18;;;;;;;10.46;100.00;101701.19;10829408;26;20828;-73
2024/04/14 18:23:34;;;;;;;13.05;4.40;;;;;;;10.44;100.00;101712.44;10846618;26;20120;-73
2024/04/14 18:28:31;;;;;;;12.80;5.72;;;;;;;10.15;100.00;101722.59;10854306;26;20036;-74
2024/04/14 18:33:29;;;;;;;17.77;5.38;;;;;;;10.17;100.00;101723.91;10841782;26;20392;-74
2024/04/14 18:38:29;;;;;;;13.45;6.50;;;;;;;9.93;100.00;101725.81;10847172;26;20082;-73
2024/04/14 18:43:27;;;;;;;10.10;4.90;;;;;;;9.76;100.00;101732.53;10821203;26;20016;-74
2024/04/14 18:48:26;;;;;;;12.80;4.65;;;;;;;9.77;100.00;101728.69;10817913;26;20408;-75
2024/04/14 18:53:25;;;;;;;16.52;5.18;;;;;;;9.62;100.00;101726.09;10846577;26;20005;-73
2024/04/14 18:58:22;;;;;;;9.70;5.50;;;;;;;9.35;100.00;101724.69;10849610;26;20004;-73
2024/04/14 19:03:19;;;;;;;12.18;4.80;;;;;;;9.53;100.00;101716.91;10854242;26;20453;-73
2024/04/14 19:08:25;;;;;;;12.05;4.65;;;;;;;9.34;100.00;101714.88;10834630;26;20036;-73
2024/04/14 19:13:23;;;;;;;15.57;4.50;;;;;;;9.30;100.00;101721.19;10869975;26;20001;-73
2024/04/14 19:18:20;;;;;;;13.95;4.85;;;;;;;9.25;100.00;101706.47;10854126;26;20016;-74
2024/04/14 19:23:17;;;;;;;13.85;4.85;;;;;;;9.19;100.00;101709.50;10828591;26;20040;-73
2024/04/14 19:28:14;;;;;;;10.15;4.30;;;;;;;9.19;100.00;101693.13;10838871;26;20016;-74
2024/04/14 19:33:13;;;;;;;8.95;4.18;;;;;;;9.17;100.00;101692.63;10836211;26;21825;-73
2024/04/14 19:38:11;;;;;;;14.90;4.90;;;;;;;9.36;100.00;101690.03;10874968;26;20001;-74
2024/04/14 19:43:09;;;;;;;11.63;5.13;;;;;;;9.15;100.00;101692.09;10838259;26;20328;-74
2024/04/14 19:48:06;;;;;;;9.25;4.32;;;;;;;9.01;100.00;101684.53;10855382;26;20005;-74
2024/04/14 19:53:04;;;;;;;7.35;3.90;;;;;;;8.96;100.00;101673.69;10833884;26;20019;-74
2024/04/14 19:58:01;;;;;;;8.63;4.68;;;;;;;8.78;100.00;101680.59;10835691;26;20009;-74
2024/04/14 20:02:58;;;;;;;14.85;5.07;;;;;;;8.90;100.00;101669.34;10840799;26;20001;-74
2024/04/14 20:07:56;;;;;;;7.97;4.22;;;;;;;8.86;100.00;101657.38;10822511;26;20013;-75
2024/04/14 20:12:53;;;;;;;14.02;5.00;;;;;;;8.93;100.00;101666.03;10841596;26;20012;-68
2024/04/14 20:17:50;;;;;;;9.85;5.75;;;;;;;8.72;100.00;101659.09;10819725;26;20078;-69
2024/04/14 20:22:48;;;;;;;11.38;4.88;;;;;;;8.83;100.00;101649.75;10832596;26;20062;-71
2024/04/14 20:27:45;;;;;;;10.45;4.95;;;;;;;8.61;100.00;101642.81;10845494;26;20338;-71
2024/04/14 20:32:42;;;;;;;11.57;4.03;;;;;;;8.54;100.00;101642.31;10854843;26;20341;-71
2024/04/14 20:37:39;;;;;;;13.52;4.45;;;;;;;8.42;100.00;101626.31;10858020;26;20078;-70
2024/04/14 20:42:37;;;;;;;12.93;5.55;;;;;;;8.49;100.00;101630.59;10852690;26;20021;-71
2024/04/14 20:47:34;;;;;;;14.38;4.97;;;;;;;8.83;100.00;101627.94;10868305;26;20019;-67
2024/04/14 20:52:31;;;;;;;15.90;4.90;;;;;;;8.55;100.00;101622.13;10845389;26;20004;-70
2024/04/14 20:57:28;;;;;;;18.63;4.43;;;;;;;8.47;100.00;101602.81;10848023;26;20348;-71
2024/04/14 21:02:25;;;;;;;12.18;5.05;;;;;;;8.68;100.00;101592.59;10842316;26;20008;-68
2024/04/14 21:07:23;;;;;;;14.07;4.55;;;;;;;8.59;100.00;101595.94;10870257;26;20522;-68
2024/04/14 21:12:20;;;;;;;14.00;4.80;;;;;;;8.49;100.00;101590.53;10837960;26;20333;-68
2024/04/14 21:17:17;;;;;;;14.18;4.20;;;;;;;8.35;100.00;101578.59;10845681;26;20009;-68
2024/04/14 21:22:14;;;;;;;14.20;4.28;;;;;;;8.49;100.00;101579.63;10860708;26;20013;-69
2024/04/14 21:27:11;;;;;;;14.82;3.97;;;;;;;8.26;100.00;101570.19;10844077;26;19997;-70
2024/04/14 21:32:08;;;;;;;15.32;4.40;;;;;;;8.18;100.00;101544.38;10849876;26;20021;-71
2024/04/14 21:37:06;;;;;;;29.38;5.13;;;;;;;8.28;100.00;101529.06;10852461;26;20001;-71
2024/04/14 21:42:05;;;;;;;12.30;4.40;;;;;;;8.32;100.00;101524.69;10849375;26;20017;-71
2024/04/14 21:47:02;;;;;;;10.13;4.30;;;;;;;8.18;100.00;101529.94;10858577;26;20012;-71
2024/04/14 21:51:59;;;;;;;10.70;4.40;;;;;;;8.34;100.00;101512.41;10831312;26;20086;-72
2024/04/14 21:56:56;;;;;;;16.65;4.78;;;;;;;8.18;100.00;101497.25;10851078;26;20352;-69
2024/04/14 22:01:53;;;;;;;9.60;4.47;;;;;;;8.18;100.00;101500.78;10869723;26;20025;-69
2024/04/14 22:06:50;;;;;;;13.48;4.38;;;;;;;8.38;100.00;101485.41;10852172;26;20008;-71
2024/04/14 22:11:48;;;;;;;12.98;4.65;;;;;;;8.34;100.00;101484.34;10851577;26;20882;-70
2024/04/14 22:16:45;;;;;;;12.93;4.25;;;;;;;8.47;100.00;101497.38;10858788;26;20014;-71
2024/04/14 22:21:42;;;;;;;20.13;4.53;;;;;;;8.40;100.00;101499.56;10840709;26;20005;-69
2024/04/14 22:26:41;;;;;;;15.05;5.13;;;;;;;8.29;100.00;101503.47;10838116;26;20071;-70
2024/04/14 22:31:38;;;;;;;14.52;4.82;;;;;;;8.37;100.00;101489.22;10837750;26;20106;-71
2024/04/14 22:36:35;;;;;;;12.93;4.60;;;;;;;8.19;100.00;101494.25;10849119;26;20112;-71